createdAt,value
2017-06-10T00:00:16.466Z,932.46
2017-06-10T00:00:44.713Z,932.42
2017-06-10T00:01:12.983Z,932.4
2017-06-10T00:01:41.189Z,932.42
2017-06-10T00:02:09.316Z,932.37
2017-06-10T00:02:37.555Z,932.31
2017-06-10T00:03:05.721Z,932.29
2017-06-10T00:03:33.941Z,932.27
2017-06-10T00:04:02.239Z,932.23
2017-06-10T00:04:30.394Z,932.18
2017-06-10T00:04:58.688Z,932.16
2017-06-10T00:05:26.742Z,932.18
2017-06-10T00:05:55.041Z,932.19
2017-06-10T00:06:23.237Z,932.17
2017-06-10T00:06:51.381Z,932.28
2017-06-10T00:07:19.438Z,932.33
2017-06-10T00:07:47.616Z,932.29
2017-06-10T00:08:15.670Z,932.4
2017-06-10T00:08:43.836Z,932.39
2017-06-10T00:09:11.974Z,932.41
2017-06-10T00:09:40.291Z,932.36
2017-06-10T00:10:08.471Z,932.35
2017-06-10T00:10:36.719Z,932.33
2017-06-10T00:11:04.713Z,932.37
2017-06-10T00:11:32.930Z,932.32
2017-06-10T00:12:01.187Z,932.36
2017-06-10T00:12:29.446Z,932.36
2017-06-10T00:12:57.616Z,932.36
2017-06-10T00:13:25.897Z,932.41
2017-06-10T00:13:54.156Z,932.39
2017-06-10T00:14:22.342Z,932.41
2017-06-10T00:14:50.487Z,932.45
2017-06-10T00:15:18.748Z,932.42
2017-06-10T00:15:47.050Z,932.48
2017-06-10T00:16:15.293Z,932.49
2017-06-10T00:16:43.439Z,932.49
2017-06-10T00:17:11.701Z,932.53
2017-06-10T00:17:39.839Z,932.58
2017-06-10T00:18:07.937Z,932.58
2017-06-10T00:18:35.926Z,932.61
2017-06-10T00:19:04.114Z,932.57
2017-06-10T00:19:32.379Z,932.58
2017-06-10T00:20:00.497Z,932.58
2017-06-10T00:20:28.636Z,932.54
2017-06-10T00:20:56.804Z,932.5
2017-06-10T00:21:25.053Z,932.54
2017-06-10T00:21:53.228Z,932.54
2017-06-10T00:22:21.299Z,932.58
2017-06-10T00:22:49.503Z,932.56
2017-06-10T00:23:17.770Z,932.55
2017-06-10T00:23:46.009Z,932.54
2017-06-10T00:24:14.126Z,932.58
2017-06-10T00:24:42.409Z,932.54
2017-06-10T00:25:10.703Z,932.54
2017-06-10T00:25:38.657Z,932.54
2017-06-10T00:26:06.741Z,932.54
2017-06-10T00:26:34.927Z,932.5
2017-06-10T00:27:03.123Z,932.54
2017-06-10T00:27:31.178Z,932.49
2017-06-10T00:27:59.491Z,932.55
2017-06-10T00:28:27.753Z,932.6
2017-06-10T00:28:56.005Z,932.59
2017-06-10T00:29:24.219Z,932.6
2017-06-10T00:29:52.630Z,932.54
2017-06-10T00:30:20.696Z,932.59
2017-06-10T00:30:48.843Z,932.56
2017-06-10T00:31:17.035Z,932.53
2017-06-10T00:31:45.305Z,932.52
2017-06-10T00:32:13.592Z,932.55
2017-06-10T00:32:41.872Z,932.5
2017-06-10T00:33:10.132Z,932.55
2017-06-10T00:33:38.116Z,932.53
2017-06-10T00:34:06.349Z,932.51
2017-06-10T00:34:34.508Z,932.53
2017-06-10T00:35:02.804Z,932.53
2017-06-10T00:35:31.005Z,932.53
2017-06-10T00:35:59.170Z,932.49
2017-06-10T00:36:27.354Z,932.51
2017-06-10T00:36:55.473Z,932.49
2017-06-10T00:37:23.637Z,932.45
2017-06-10T00:37:51.924Z,932.49
2017-06-10T00:38:20.060Z,932.52
2017-06-10T00:38:48.058Z,932.5
2017-06-10T00:39:16.228Z,932.5
2017-06-10T00:39:44.352Z,932.44
2017-06-10T00:40:12.649Z,932.36
2017-06-10T00:40:40.948Z,932.34
2017-06-10T00:41:09.109Z,932.32
2017-06-10T00:41:37.347Z,932.21
2017-06-10T00:42:05.536Z,932.27
2017-06-10T00:42:33.757Z,932.23
2017-06-10T00:43:01.928Z,932.23
2017-06-10T00:43:30.010Z,932.29
2017-06-10T00:43:58.285Z,932.26
2017-06-10T00:44:26.554Z,932.2
2017-06-10T00:44:54.737Z,932.15
2017-06-10T00:45:23.268Z,932.16
2017-06-10T00:45:51.521Z,932.14
2017-06-10T00:46:19.687Z,932.17
2017-06-10T00:46:47.877Z,932.2
2017-06-10T00:47:16.074Z,932.2
2017-06-10T00:47:44.132Z,932.25
2017-06-10T00:48:12.168Z,932.22
2017-06-10T00:48:40.399Z,932.26
2017-06-10T00:49:08.643Z,932.28
2017-06-10T00:49:36.851Z,932.31
2017-06-10T00:50:04.981Z,932.31
2017-06-10T00:50:33.464Z,932.36
2017-06-10T00:51:01.730Z,932.39
2017-06-10T00:51:29.674Z,932.45
2017-06-10T00:51:57.719Z,932.5
2017-06-10T00:52:25.884Z,932.57
2017-06-10T00:52:54.120Z,932.61
2017-06-10T00:53:22.376Z,932.64
2017-06-10T00:53:50.642Z,932.68
2017-06-10T00:54:18.748Z,932.65
2017-06-10T00:54:46.840Z,932.66
2017-06-10T00:55:15.341Z,932.64
2017-06-10T00:55:43.405Z,932.65
2017-06-10T00:56:11.670Z,932.63
2017-06-10T00:56:39.671Z,932.66
2017-06-10T00:57:07.814Z,932.63
2017-06-10T00:57:36.055Z,932.62
2017-06-10T00:58:04.181Z,932.6
2017-06-10T00:58:32.208Z,932.63
2017-06-10T00:59:00.361Z,932.66
2017-06-10T00:59:28.592Z,932.69
2017-06-10T00:59:56.717Z,932.75
2017-06-10T01:00:25.200Z,932.81
2017-06-10T01:00:53.423Z,932.84
2017-06-10T01:01:21.692Z,932.91
2017-06-10T01:01:49.825Z,932.91
2017-06-10T01:02:18.051Z,932.92
2017-06-10T01:02:46.307Z,932.97
2017-06-10T01:03:14.485Z,932.91
2017-06-10T01:03:42.631Z,932.89
2017-06-10T01:04:10.789Z,932.87
2017-06-10T01:04:38.848Z,932.84
2017-06-10T01:05:07.048Z,932.83
2017-06-10T01:05:35.374Z,932.83
2017-06-10T01:06:03.526Z,932.85
2017-06-10T01:06:31.498Z,932.84
2017-06-10T01:06:59.641Z,932.8
2017-06-10T01:07:27.852Z,932.76
2017-06-10T01:07:55.866Z,932.77
2017-06-10T01:08:23.993Z,932.8
2017-06-10T01:08:52.215Z,932.8
2017-06-10T01:09:20.246Z,932.8
2017-06-10T01:09:48.488Z,932.8
2017-06-10T01:10:16.655Z,932.73
2017-06-10T01:10:44.898Z,932.71
2017-06-10T01:11:13.145Z,932.7
2017-06-10T01:11:41.328Z,932.69
2017-06-10T01:12:09.463Z,932.67
2017-06-10T01:12:37.568Z,932.67
2017-06-10T01:13:05.731Z,932.66
2017-06-10T01:13:33.765Z,932.55
2017-06-10T01:14:01.987Z,932.59
2017-06-10T01:14:30.288Z,932.6
2017-06-10T01:14:58.539Z,932.59
2017-06-10T01:15:26.731Z,932.5
2017-06-10T01:15:54.992Z,932.58
2017-06-10T01:16:23.266Z,932.58
2017-06-10T01:16:51.310Z,932.56
2017-06-10T01:17:19.392Z,932.6
2017-06-10T01:17:47.695Z,932.64
2017-06-10T01:18:15.771Z,932.7
2017-06-10T01:18:44.001Z,932.75
2017-06-10T01:19:12.147Z,932.8
2017-06-10T01:19:40.275Z,932.87
2017-06-10T01:20:08.400Z,932.92
2017-06-10T01:20:36.727Z,932.99
2017-06-10T01:21:04.879Z,933.06
2017-06-10T01:21:33.121Z,933.1
2017-06-10T01:22:01.292Z,933.16
2017-06-10T01:22:29.525Z,933.18
2017-06-10T01:22:57.716Z,933.17
2017-06-10T01:23:25.847Z,933.22
2017-06-10T01:23:53.971Z,933.21
2017-06-10T01:24:22.190Z,933.18
2017-06-10T01:24:50.393Z,933.21
2017-06-10T01:25:18.621Z,933.23
2017-06-10T01:25:46.976Z,933.23
2017-06-10T01:26:15.294Z,933.24
2017-06-10T01:26:43.498Z,933.26
2017-06-10T01:27:11.573Z,933.22
2017-06-10T01:27:39.705Z,933.21
2017-06-10T01:28:08.012Z,933.24
2017-06-10T01:28:36.079Z,933.2
2017-06-10T01:29:04.142Z,933.22
2017-06-10T01:29:32.426Z,933.23
2017-06-10T01:30:00.564Z,933.16
2017-06-10T01:30:28.774Z,933.1
2017-06-10T01:30:57.271Z,933.08
2017-06-10T01:31:25.500Z,933.01
2017-06-10T01:31:53.715Z,932.98
2017-06-10T01:32:21.919Z,932.92
2017-06-10T01:32:49.875Z,932.91
2017-06-10T01:33:18.112Z,932.89
2017-06-10T01:33:46.136Z,932.87
2017-06-10T01:34:14.192Z,932.85
2017-06-10T01:34:42.436Z,932.82
2017-06-10T01:35:10.545Z,932.74
2017-06-10T01:35:38.692Z,932.77
2017-06-10T01:36:06.974Z,932.73
2017-06-10T01:36:35.139Z,932.71
2017-06-10T01:37:03.452Z,932.7
2017-06-10T01:37:31.689Z,932.73
2017-06-10T01:37:59.971Z,932.77
2017-06-10T01:38:28.137Z,932.84
2017-06-10T01:38:56.368Z,932.87
2017-06-10T01:39:24.518Z,932.88
2017-06-10T01:39:52.755Z,932.93
2017-06-10T01:40:20.984Z,932.92
2017-06-10T01:40:49.245Z,932.9
2017-06-10T01:41:17.230Z,932.92
2017-06-10T01:41:45.413Z,932.9
2017-06-10T01:42:13.659Z,932.87
2017-06-10T01:42:41.953Z,932.86
2017-06-10T01:43:10.247Z,932.83
2017-06-10T01:43:38.391Z,932.82
2017-06-10T01:44:06.666Z,932.74
2017-06-10T01:44:34.947Z,932.74
2017-06-10T01:45:03.095Z,932.74
2017-06-10T01:45:31.387Z,932.71
2017-06-10T01:45:59.742Z,932.72
2017-06-10T01:46:27.900Z,932.68
2017-06-10T01:46:56.114Z,932.72
2017-06-10T01:47:24.149Z,932.77
2017-06-10T01:47:52.373Z,932.78
2017-06-10T01:48:20.433Z,932.78
2017-06-10T01:48:48.551Z,932.8
2017-06-10T01:49:16.717Z,932.83
2017-06-10T01:49:45.038Z,932.77
2017-06-10T01:50:13.125Z,932.77
2017-06-10T01:50:41.380Z,932.74
2017-06-10T01:51:09.665Z,932.79
2017-06-10T01:51:37.840Z,932.7
2017-06-10T01:52:06.115Z,932.66
2017-06-10T01:52:34.268Z,932.64
2017-06-10T01:53:02.389Z,932.64
2017-06-10T01:53:30.443Z,932.66
2017-06-10T01:53:58.706Z,932.64
2017-06-10T01:54:26.805Z,932.71
2017-06-10T01:54:54.883Z,932.69
2017-06-10T01:55:23.116Z,932.74
2017-06-10T01:55:51.421Z,932.72
2017-06-10T01:56:19.715Z,932.73
2017-06-10T01:56:47.770Z,932.72
2017-06-10T01:57:15.941Z,932.71
2017-06-10T01:57:44.088Z,932.67
2017-06-10T01:58:12.247Z,932.73
2017-06-10T01:58:40.434Z,932.72
2017-06-10T01:59:08.685Z,932.74
2017-06-10T01:59:36.990Z,932.77
2017-06-10T02:00:05.223Z,932.77
2017-06-10T02:00:33.333Z,932.75
2017-06-10T02:01:01.562Z,932.78
2017-06-10T02:01:29.699Z,932.83
2017-06-10T02:01:57.773Z,932.85
2017-06-10T02:02:25.958Z,932.91
2017-06-10T02:02:54.104Z,932.93
2017-06-10T02:03:22.245Z,932.89
2017-06-10T02:03:50.317Z,932.85
2017-06-10T02:04:18.451Z,932.79
2017-06-10T02:04:46.679Z,932.74
2017-06-10T02:05:14.744Z,932.64
2017-06-10T02:05:42.788Z,932.64
2017-06-10T02:06:11.203Z,932.63
2017-06-10T02:06:39.408Z,932.62
2017-06-10T02:07:07.642Z,932.57
2017-06-10T02:07:35.888Z,932.59
2017-06-10T02:08:03.967Z,932.59
2017-06-10T02:08:32.177Z,932.6
2017-06-10T02:09:00.449Z,932.62
2017-06-10T02:09:28.596Z,932.68
2017-06-10T02:09:56.837Z,932.64
2017-06-10T02:10:24.988Z,932.71
2017-06-10T02:10:53.208Z,932.75
2017-06-10T02:11:21.596Z,932.69
2017-06-10T02:11:49.729Z,932.69
2017-06-10T02:12:17.976Z,932.77
2017-06-10T02:12:46.232Z,932.74
2017-06-10T02:13:14.431Z,932.78
2017-06-10T02:13:42.572Z,932.78
2017-06-10T02:14:10.710Z,932.73
2017-06-10T02:14:38.986Z,932.73
2017-06-10T02:15:07.175Z,932.76
2017-06-10T02:15:35.213Z,932.77
2017-06-10T02:16:03.342Z,932.79
2017-06-10T02:16:31.616Z,932.78
2017-06-10T02:16:59.817Z,932.81
2017-06-10T02:17:27.863Z,932.84
2017-06-10T02:17:55.882Z,932.81
2017-06-10T02:18:23.731Z,932.85
2017-06-10T02:18:51.761Z,932.85
2017-06-10T02:19:19.815Z,932.86
2017-06-10T02:19:47.954Z,932.86
2017-06-10T02:20:16.167Z,932.83
2017-06-10T02:20:44.316Z,932.86
2017-06-10T02:21:12.504Z,932.9
2017-06-10T02:21:40.757Z,932.89
2017-06-10T02:22:08.928Z,932.92
2017-06-10T02:22:37.102Z,932.98
2017-06-10T02:23:05.362Z,932.88
2017-06-10T02:23:33.622Z,932.95
2017-06-10T02:24:01.764Z,932.98
2017-06-10T02:24:29.829Z,933
2017-06-10T02:24:58.083Z,932.99
2017-06-10T02:25:26.195Z,933.05
2017-06-10T02:25:54.321Z,932.98
2017-06-10T02:26:22.475Z,933
2017-06-10T02:26:50.725Z,932.96
2017-06-10T02:27:18.884Z,932.96
2017-06-10T02:27:46.913Z,932.91
2017-06-10T02:28:15.229Z,932.89
2017-06-10T02:28:43.469Z,932.89
2017-06-10T02:29:11.429Z,932.9
2017-06-10T02:29:39.704Z,932.86
2017-06-10T02:30:07.873Z,932.81
2017-06-10T02:30:36.043Z,932.84
2017-06-10T02:31:04.150Z,932.87
2017-06-10T02:31:32.585Z,932.86
2017-06-10T02:32:00.629Z,932.87
2017-06-10T02:32:28.717Z,932.81
2017-06-10T02:32:56.945Z,932.84
2017-06-10T02:33:25.113Z,932.89
2017-06-10T02:33:53.246Z,932.85
2017-06-10T02:34:21.414Z,932.87
2017-06-10T02:34:49.445Z,932.89
2017-06-10T02:35:17.430Z,932.92
2017-06-10T02:35:45.507Z,932.91
2017-06-10T02:36:13.583Z,932.94
2017-06-10T02:36:42.025Z,932.9
2017-06-10T02:37:09.967Z,932.88
2017-06-10T02:37:38.275Z,932.9
2017-06-10T02:38:06.452Z,932.89
2017-06-10T02:38:34.616Z,932.89
2017-06-10T02:39:02.668Z,932.9
2017-06-10T02:39:30.719Z,932.87
2017-06-10T02:39:58.985Z,932.87
2017-06-10T02:40:27.140Z,932.9
2017-06-10T02:40:55.305Z,932.88
2017-06-10T02:41:23.425Z,932.91
2017-06-10T02:41:51.788Z,932.9
2017-06-10T02:42:19.964Z,932.92
2017-06-10T02:42:48.209Z,932.87
2017-06-10T02:43:16.452Z,932.9
2017-06-10T02:43:44.708Z,932.91
2017-06-10T02:44:12.766Z,932.84
2017-06-10T02:44:40.921Z,932.84
2017-06-10T02:45:09.141Z,932.89
2017-06-10T02:45:37.282Z,932.9
2017-06-10T02:46:05.437Z,932.91
2017-06-10T02:46:33.728Z,932.87
2017-06-10T02:47:02.159Z,932.87
2017-06-10T02:47:30.415Z,932.86
2017-06-10T02:47:58.498Z,932.8
2017-06-10T02:48:26.540Z,932.77
2017-06-10T02:48:54.714Z,932.73
2017-06-10T02:49:22.947Z,932.77
2017-06-10T02:49:50.961Z,932.78
2017-06-10T02:50:19.125Z,932.78
2017-06-10T02:50:47.374Z,932.83
2017-06-10T02:51:15.633Z,932.89
2017-06-10T02:51:44.073Z,932.91
2017-06-10T02:52:12.334Z,932.98
2017-06-10T02:52:40.545Z,932.95
2017-06-10T02:53:08.599Z,933.03
2017-06-10T02:53:36.684Z,932.94
2017-06-10T02:54:04.843Z,932.83
2017-06-10T02:54:33.049Z,932.83
2017-06-10T02:55:01.176Z,932.76
2017-06-10T02:55:29.345Z,932.71
2017-06-10T02:55:57.539Z,932.68
2017-06-10T02:56:25.801Z,932.69
2017-06-10T02:56:54.183Z,932.71
2017-06-10T02:57:22.356Z,932.72
2017-06-10T02:57:50.592Z,932.76
2017-06-10T02:58:18.858Z,932.76
2017-06-10T02:58:47.107Z,932.78
2017-06-10T02:59:15.242Z,932.82
2017-06-10T02:59:43.415Z,932.81
2017-06-10T03:00:11.577Z,932.85
2017-06-10T03:00:39.810Z,932.84
2017-06-10T03:01:07.824Z,932.85
2017-06-10T03:01:35.899Z,932.85
2017-06-10T03:02:04.216Z,932.85
2017-06-10T03:02:32.230Z,932.84
2017-06-10T03:03:00.288Z,932.81
2017-06-10T03:03:28.560Z,932.81
2017-06-10T03:03:56.602Z,932.83
2017-06-10T03:04:24.792Z,932.8
2017-06-10T03:04:52.934Z,932.81
2017-06-10T03:05:21.149Z,932.8
2017-06-10T03:05:49.203Z,932.81
2017-06-10T03:06:17.470Z,932.81
2017-06-10T03:06:45.637Z,932.86
2017-06-10T03:07:13.866Z,932.83
2017-06-10T03:07:42.014Z,932.84
2017-06-10T03:08:10.209Z,932.85
2017-06-10T03:08:38.311Z,932.87
2017-06-10T03:09:06.590Z,932.87
2017-06-10T03:09:34.706Z,932.9
2017-06-10T03:10:02.983Z,932.87
2017-06-10T03:10:31.039Z,932.89
2017-06-10T03:10:59.284Z,932.84
2017-06-10T03:11:27.477Z,932.85
2017-06-10T03:11:55.724Z,932.84
2017-06-10T03:12:24.196Z,932.8
2017-06-10T03:12:52.414Z,932.8
2017-06-10T03:13:20.668Z,932.78
2017-06-10T03:13:48.898Z,932.79
2017-06-10T03:14:17.094Z,932.82
2017-06-10T03:14:45.167Z,932.86
2017-06-10T03:15:13.194Z,932.86
2017-06-10T03:15:41.430Z,932.9
2017-06-10T03:16:09.585Z,932.89
2017-06-10T03:16:37.761Z,932.89
2017-06-10T03:17:06.073Z,932.89
2017-06-10T03:17:34.310Z,932.9
2017-06-10T03:18:02.453Z,932.87
2017-06-10T03:18:30.608Z,932.87
2017-06-10T03:18:58.567Z,932.86
2017-06-10T03:19:26.611Z,932.85
2017-06-10T03:19:54.778Z,932.83
2017-06-10T03:20:22.921Z,932.83
2017-06-10T03:20:51.213Z,932.85
2017-06-10T03:21:19.380Z,932.88
2017-06-10T03:21:47.525Z,932.85
2017-06-10T03:22:15.836Z,932.86
2017-06-10T03:22:44.001Z,932.89
2017-06-10T03:23:12.130Z,932.84
2017-06-10T03:23:40.362Z,932.89
2017-06-10T03:24:08.573Z,932.89
2017-06-10T03:24:36.754Z,932.91
2017-06-10T03:25:04.993Z,932.87
2017-06-10T03:25:33.140Z,932.87
2017-06-10T03:26:01.241Z,932.88
2017-06-10T03:26:29.509Z,932.88
2017-06-10T03:26:57.787Z,932.87
2017-06-10T03:27:26.128Z,932.81
2017-06-10T03:27:54.174Z,932.85
2017-06-10T03:28:22.334Z,932.78
2017-06-10T03:28:50.391Z,932.81
2017-06-10T03:29:18.622Z,932.83
2017-06-10T03:29:46.773Z,932.82
2017-06-10T03:30:14.879Z,932.81
2017-06-10T03:30:43.065Z,932.74
2017-06-10T03:31:11.122Z,932.77
2017-06-10T03:31:39.410Z,932.74
2017-06-10T03:32:07.642Z,932.78
2017-06-10T03:32:35.975Z,932.72
2017-06-10T03:33:04.186Z,932.71
2017-06-10T03:33:32.400Z,932.72
2017-06-10T03:34:00.516Z,932.73
2017-06-10T03:34:28.729Z,932.73
2017-06-10T03:34:56.963Z,932.76
2017-06-10T03:35:25.124Z,932.75
2017-06-10T03:35:53.234Z,932.77
2017-06-10T03:36:21.388Z,932.78
2017-06-10T03:36:49.572Z,932.84
2017-06-10T03:37:17.737Z,932.82
2017-06-10T03:37:46.171Z,932.8
2017-06-10T03:38:14.365Z,932.83
2017-06-10T03:38:42.550Z,932.82
2017-06-10T03:39:10.806Z,932.83
2017-06-10T03:39:38.958Z,932.84
2017-06-10T03:40:07.135Z,932.85
2017-06-10T03:40:35.397Z,932.87
2017-06-10T03:41:03.469Z,932.88
2017-06-10T03:41:31.633Z,932.89
2017-06-10T03:41:59.755Z,932.87
2017-06-10T03:42:28.328Z,932.85
2017-06-10T03:42:56.405Z,932.87
2017-06-10T03:43:24.567Z,932.85
2017-06-10T03:43:52.808Z,932.93
2017-06-10T03:44:20.911Z,932.92
2017-06-10T03:44:49.085Z,933
2017-06-10T03:45:17.201Z,933.02
2017-06-10T03:45:45.374Z,933.05
2017-06-10T03:46:13.431Z,933.07
2017-06-10T03:46:41.443Z,933
2017-06-10T03:47:09.607Z,932.99
2017-06-10T03:47:38.015Z,932.97
2017-06-10T03:48:06.217Z,932.94
2017-06-10T03:48:34.416Z,932.97
2017-06-10T03:49:02.606Z,932.95
2017-06-10T03:49:30.826Z,932.93
2017-06-10T03:49:58.949Z,932.92
2017-06-10T03:50:27.188Z,932.93
2017-06-10T03:50:55.409Z,932.95
2017-06-10T03:51:23.409Z,932.94
2017-06-10T03:51:51.618Z,932.98
2017-06-10T03:52:19.693Z,932.98
2017-06-10T03:52:47.917Z,932.94
2017-06-10T03:53:16.054Z,932.93
2017-06-10T03:53:44.245Z,932.99
2017-06-10T03:54:12.501Z,932.95
2017-06-10T03:54:40.674Z,932.93
2017-06-10T03:55:08.974Z,932.92
2017-06-10T03:55:37.218Z,932.9
2017-06-10T03:56:05.395Z,932.91
2017-06-10T03:56:33.642Z,932.91
2017-06-10T03:57:01.917Z,932.88
2017-06-10T03:57:30.098Z,932.86
2017-06-10T03:57:58.360Z,932.89
2017-06-10T03:58:26.524Z,932.86
2017-06-10T03:58:54.810Z,932.85
2017-06-10T03:59:23.099Z,932.83
2017-06-10T03:59:51.394Z,932.79
2017-06-10T04:00:19.497Z,932.78
2017-06-10T04:00:47.734Z,932.77
2017-06-10T04:01:15.961Z,932.76
2017-06-10T04:01:44.213Z,932.75
2017-06-10T04:02:12.466Z,932.76
2017-06-10T04:02:40.710Z,932.73
2017-06-10T04:03:09.104Z,932.81
2017-06-10T04:03:37.168Z,932.74
2017-06-10T04:04:05.432Z,932.73
2017-06-10T04:04:33.582Z,932.78
2017-06-10T04:05:01.713Z,932.77
2017-06-10T04:05:29.913Z,932.74
2017-06-10T04:05:58.109Z,932.81
2017-06-10T04:06:26.339Z,932.82
2017-06-10T04:06:54.606Z,932.84
2017-06-10T04:07:22.754Z,932.86
2017-06-10T04:07:51.247Z,932.81
2017-06-10T04:08:19.449Z,932.82
2017-06-10T04:08:47.601Z,932.79
2017-06-10T04:09:15.874Z,932.81
2017-06-10T04:09:43.912Z,932.81
2017-06-10T04:10:12.059Z,932.84
2017-06-10T04:10:40.242Z,932.86
2017-06-10T04:11:08.339Z,932.88
2017-06-10T04:11:36.621Z,932.92
2017-06-10T04:12:04.794Z,932.93
2017-06-10T04:12:32.930Z,932.92
2017-06-10T04:13:01.230Z,932.91
2017-06-10T04:13:29.108Z,932.9
2017-06-10T04:13:57.410Z,932.9
2017-06-10T04:14:25.476Z,932.91
2017-06-10T04:14:53.706Z,932.87
2017-06-10T04:15:21.693Z,932.89
2017-06-10T04:15:49.929Z,932.87
2017-06-10T04:16:18.075Z,932.85
2017-06-10T04:16:46.154Z,932.84
2017-06-10T04:17:14.222Z,932.82
2017-06-10T04:17:42.383Z,932.85
2017-06-10T04:18:10.708Z,932.84
2017-06-10T04:18:38.885Z,932.85
2017-06-10T04:19:07.060Z,932.84
2017-06-10T04:19:35.319Z,932.84
2017-06-10T04:20:03.557Z,932.82
2017-06-10T04:20:31.630Z,932.75
2017-06-10T04:20:59.899Z,932.75
2017-06-10T04:21:28.044Z,932.67
2017-06-10T04:21:56.196Z,932.62
2017-06-10T04:22:24.230Z,932.63
2017-06-10T04:22:52.185Z,932.62
2017-06-10T04:23:20.311Z,932.61
2017-06-10T04:23:48.414Z,932.59
2017-06-10T04:24:16.610Z,932.58
2017-06-10T04:24:44.775Z,932.6
2017-06-10T04:25:13.009Z,932.61
2017-06-10T04:25:41.045Z,932.6
2017-06-10T04:26:09.116Z,932.63
2017-06-10T04:26:37.201Z,932.63
2017-06-10T04:27:05.445Z,932.66
2017-06-10T04:27:33.626Z,932.68
2017-06-10T04:28:01.681Z,932.7
2017-06-10T04:28:30.133Z,932.67
2017-06-10T04:28:58.365Z,932.68
2017-06-10T04:29:26.610Z,932.71
2017-06-10T04:29:54.740Z,932.75
2017-06-10T04:30:22.756Z,932.78
2017-06-10T04:30:50.928Z,932.78
2017-06-10T04:31:19.219Z,932.79
2017-06-10T04:31:47.390Z,932.81
2017-06-10T04:32:15.492Z,932.84
2017-06-10T04:32:43.692Z,932.78
2017-06-10T04:33:11.972Z,932.78
2017-06-10T04:33:40.219Z,932.81
2017-06-10T04:34:08.504Z,932.78
2017-06-10T04:34:36.568Z,932.75
2017-06-10T04:35:04.803Z,932.79
2017-06-10T04:35:33.020Z,932.72
2017-06-10T04:36:01.211Z,932.72
2017-06-10T04:36:29.403Z,932.72
2017-06-10T04:36:57.538Z,932.74
2017-06-10T04:37:25.806Z,932.72
2017-06-10T04:37:53.949Z,932.76
2017-06-10T04:38:22.379Z,932.74
2017-06-10T04:38:50.584Z,932.76
2017-06-10T04:39:18.768Z,932.73
2017-06-10T04:39:46.978Z,932.69
2017-06-10T04:40:15.243Z,932.69
2017-06-10T04:40:43.366Z,932.66
2017-06-10T04:41:11.600Z,932.65
2017-06-10T04:41:39.812Z,932.67
2017-06-10T04:42:08.036Z,932.55
2017-06-10T04:42:36.282Z,932.69
2017-06-10T04:43:04.555Z,932.7
2017-06-10T04:43:33.028Z,932.68
2017-06-10T04:44:01.197Z,932.73
2017-06-10T04:44:29.354Z,932.74
2017-06-10T04:44:57.439Z,932.76
2017-06-10T04:45:25.548Z,932.8
2017-06-10T04:45:53.831Z,932.83
2017-06-10T04:46:21.931Z,932.84
2017-06-10T04:46:49.962Z,932.82
2017-06-10T04:47:18.130Z,932.85
2017-06-10T04:47:46.313Z,932.86
2017-06-10T04:48:14.574Z,932.86
2017-06-10T04:48:42.949Z,932.84
2017-06-10T04:49:11.030Z,932.86
2017-06-10T04:49:39.279Z,932.84
2017-06-10T04:50:07.548Z,932.83
2017-06-10T04:50:35.806Z,932.84
2017-06-10T04:51:03.874Z,932.85
2017-06-10T04:51:32.174Z,932.85
2017-06-10T04:52:00.418Z,932.83
2017-06-10T04:52:28.687Z,932.83
2017-06-10T04:52:56.851Z,932.85
2017-06-10T04:53:24.887Z,932.81
2017-06-10T04:53:53.218Z,932.8
2017-06-10T04:54:21.488Z,932.82
2017-06-10T04:54:49.634Z,932.78
2017-06-10T04:55:17.709Z,932.81
2017-06-10T04:55:45.969Z,932.77
2017-06-10T04:56:14.204Z,932.78
2017-06-10T04:56:42.362Z,932.81
2017-06-10T04:57:10.551Z,932.76
2017-06-10T04:57:38.733Z,932.76
2017-06-10T04:58:06.859Z,932.76
2017-06-10T04:58:35.217Z,932.65
2017-06-10T04:59:03.405Z,932.68
2017-06-10T04:59:31.681Z,932.72
2017-06-10T04:59:59.821Z,932.67
2017-06-10T05:00:27.999Z,932.67
2017-06-10T05:00:56.246Z,932.67
2017-06-10T05:01:24.494Z,932.67
2017-06-10T05:01:52.586Z,932.68
2017-06-10T05:02:20.834Z,932.68
2017-06-10T05:02:48.990Z,932.67
2017-06-10T05:03:17.227Z,932.66
2017-06-10T05:03:45.565Z,932.64
2017-06-10T05:04:13.788Z,932.66
2017-06-10T05:04:41.847Z,932.63
2017-06-10T05:05:10.101Z,932.59
2017-06-10T05:05:38.366Z,932.58
2017-06-10T05:06:06.452Z,932.6
2017-06-10T05:06:34.623Z,932.63
2017-06-10T05:07:02.786Z,932.6
2017-06-10T05:07:30.934Z,932.62
2017-06-10T05:07:59.108Z,932.65
2017-06-10T05:08:27.217Z,932.66
2017-06-10T05:08:55.618Z,932.68
2017-06-10T05:09:23.850Z,932.71
2017-06-10T05:09:52.144Z,932.73
2017-06-10T05:10:20.384Z,932.75
2017-06-10T05:10:48.564Z,932.76
2017-06-10T05:11:16.669Z,932.78
2017-06-10T05:11:44.623Z,932.79
2017-06-10T05:12:12.611Z,932.77
2017-06-10T05:12:40.714Z,932.73
2017-06-10T05:13:08.991Z,932.71
2017-06-10T05:13:37.159Z,932.72
2017-06-10T05:14:05.437Z,932.71
2017-06-10T05:14:33.482Z,932.68
2017-06-10T05:15:01.628Z,932.67
2017-06-10T05:15:29.905Z,932.66
2017-06-10T05:15:58.061Z,932.69
2017-06-10T05:16:26.323Z,932.67
2017-06-10T05:16:54.562Z,932.68
2017-06-10T05:17:22.826Z,932.61
2017-06-10T05:17:51.100Z,932.62
2017-06-10T05:18:19.104Z,932.6
2017-06-10T05:18:47.376Z,932.56
2017-06-10T05:19:15.720Z,932.59
2017-06-10T05:19:43.897Z,932.55
2017-06-10T05:20:12.039Z,932.59
2017-06-10T05:20:40.155Z,932.54
2017-06-10T05:21:08.298Z,932.58
2017-06-10T05:21:36.441Z,932.58
2017-06-10T05:22:04.731Z,932.58
2017-06-10T05:22:32.767Z,932.59
2017-06-10T05:23:00.892Z,932.66
2017-06-10T05:23:29.160Z,932.62
2017-06-10T05:23:57.350Z,932.63
2017-06-10T05:24:25.510Z,932.65
2017-06-10T05:24:53.625Z,932.63
2017-06-10T05:25:21.812Z,932.68
2017-06-10T05:25:49.933Z,932.65
2017-06-10T05:26:18.206Z,932.67
2017-06-10T05:26:46.422Z,932.63
2017-06-10T05:27:14.690Z,932.66
2017-06-10T05:27:42.836Z,932.64
2017-06-10T05:28:11.013Z,932.67
2017-06-10T05:28:39.245Z,932.64
2017-06-10T05:29:07.479Z,932.64
2017-06-10T05:29:35.724Z,932.64
2017-06-10T05:30:04.013Z,932.64
2017-06-10T05:30:32.298Z,932.62
2017-06-10T05:31:00.490Z,932.65
2017-06-10T05:31:28.652Z,932.63
2017-06-10T05:31:56.753Z,932.65
2017-06-10T05:32:24.930Z,932.68
2017-06-10T05:32:53.171Z,932.69
2017-06-10T05:33:21.437Z,932.69
2017-06-10T05:33:49.686Z,932.72
2017-06-10T05:34:17.889Z,932.69
2017-06-10T05:34:46.077Z,932.68
2017-06-10T05:35:14.358Z,932.68
2017-06-10T05:35:42.419Z,932.72
2017-06-10T05:36:10.492Z,932.73
2017-06-10T05:36:38.620Z,932.71
2017-06-10T05:37:06.819Z,932.75
2017-06-10T05:37:35.024Z,932.76
2017-06-10T05:38:03.217Z,932.74
2017-06-10T05:38:31.487Z,932.77
2017-06-10T05:38:59.541Z,932.72
2017-06-10T05:39:27.794Z,932.76
2017-06-10T05:39:56.047Z,932.75
2017-06-10T05:40:24.217Z,932.7
2017-06-10T05:40:52.347Z,932.72
2017-06-10T05:41:20.578Z,932.7
2017-06-10T05:41:48.681Z,932.69
2017-06-10T05:42:16.921Z,932.71
2017-06-10T05:42:45.160Z,932.68
2017-06-10T05:43:13.329Z,932.71
2017-06-10T05:43:41.368Z,932.71
2017-06-10T05:44:09.657Z,932.68
2017-06-10T05:44:38.182Z,932.69
2017-06-10T05:45:06.377Z,932.68
2017-06-10T05:45:34.643Z,932.67
2017-06-10T05:46:02.784Z,932.68
2017-06-10T05:46:30.978Z,932.65
2017-06-10T05:46:59.148Z,932.68
2017-06-10T05:47:27.178Z,932.63
2017-06-10T05:47:55.383Z,932.64
2017-06-10T05:48:23.531Z,932.66
2017-06-10T05:48:51.795Z,932.63
2017-06-10T05:49:20.035Z,932.58
2017-06-10T05:49:48.193Z,932.58
2017-06-10T05:50:16.507Z,932.58
2017-06-10T05:50:44.641Z,932.55
2017-06-10T05:51:12.847Z,932.55
2017-06-10T05:51:41.097Z,932.51
2017-06-10T05:52:08.907Z,932.48
2017-06-10T05:52:36.972Z,932.45